sensor_id;sensor_type;location;lat;lon;timestamp;P1;durP1;ratioP1;P2;durP2;ratioP2
68300;SDS011;55146;47.468;18.806;2023-03-07T00:02:17;40.45;;;22.20;;
68300;SDS011;55146;47.468;18.806;2023-03-07T00:04:43;45.30;;;21.47;;
68300;SDS011;55146;47.468;18.806;2023-03-07T00:07:10;43.67;;;23.00;;
68300;SDS011;55146;47.468;18.806;2023-03-07T00:09:36;40.28;;;21.87;;
68300;SDS011;55146;47.468;18.806;2023-03-07T00:12:01;43.10;;;22.83;;
68300;SDS011;55146;47.468;18.806;2023-03-07T00:14:26;42.27;;;21.20;;
68300;SDS011;55146;47.468;18.806;2023-03-07T00:16:52;42.93;;;21.17;;
68300;SDS011;55146;47.468;18.806;2023-03-07T00:19:17;42.30;;;22.07;;
68300;SDS011;55146;47.468;18.806;2023-03-07T00:21:43;37.45;;;19.87;;
68300;SDS011;55146;47.468;18.806;2023-03-07T00:24:09;40.55;;;18.80;;
68300;SDS011;55146;47.468;18.806;2023-03-07T00:26:34;43.43;;;19.37;;
68300;SDS011;55146;47.468;18.806;2023-03-07T00:29:03;37.05;;;19.62;;
68300;SDS011;55146;47.468;18.806;2023-03-07T00:31:31;38.22;;;20.75;;
68300;SDS011;55146;47.468;18.806;2023-03-07T00:33:56;35.90;;;18.80;;
68300;SDS011;55146;47.468;18.806;2023-03-07T00:36:22;36.27;;;20.17;;
68300;SDS011;55146;47.468;18.806;2023-03-07T00:38:48;39.50;;;20.35;;
68300;SDS011;55146;47.468;18.806;2023-03-07T00:41:15;38.83;;;20.10;;
68300;SDS011;55146;47.468;18.806;2023-03-07T00:43:42;43.67;;;21.30;;
68300;SDS011;55146;47.468;18.806;2023-03-07T00:46:09;44.97;;;23.62;;
68300;SDS011;55146;47.468;18.806;2023-03-07T00:48:36;43.75;;;22.10;;
68300;SDS011;55146;47.468;18.806;2023-03-07T00:51:03;49.33;;;22.30;;
68300;SDS011;55146;47.468;18.806;2023-03-07T00:53:29;45.83;;;21.97;;
68300;SDS011;55146;47.468;18.806;2023-03-07T00:55:56;44.88;;;22.02;;
68300;SDS011;55146;47.468;18.806;2023-03-07T00:58:25;47.13;;;23.80;;
68300;SDS011;55146;47.468;18.806;2023-03-07T01:00:51;45.53;;;22.33;;
68300;SDS011;55146;47.468;18.806;2023-03-07T01:03:17;36.10;;;21.05;;
68300;SDS011;55146;47.468;18.806;2023-03-07T01:05:43;45.03;;;22.37;;
68300;SDS011;55146;47.468;18.806;2023-03-07T01:08:09;40.93;;;21.83;;
68300;SDS011;55146;47.468;18.806;2023-03-07T01:10:34;40.28;;;21.67;;
68300;SDS011;55146;47.468;18.806;2023-03-07T01:13:00;38.40;;;20.40;;
68300;SDS011;55146;47.468;18.806;2023-03-07T01:15:25;39.57;;;22.67;;
68300;SDS011;55146;47.468;18.806;2023-03-07T01:17:51;42.40;;;22.08;;
68300;SDS011;55146;47.468;18.806;2023-03-07T01:20:17;40.47;;;20.67;;
68300;SDS011;55146;47.468;18.806;2023-03-07T01:22:42;39.40;;;21.77;;
68300;SDS011;55146;47.468;18.806;2023-03-07T01:25:08;41.97;;;23.43;;
68300;SDS011;55146;47.468;18.806;2023-03-07T01:27:33;42.83;;;22.10;;
68300;SDS011;55146;47.468;18.806;2023-03-07T01:29:59;42.92;;;21.85;;
68300;SDS011;55146;47.468;18.806;2023-03-07T01:32:25;41.43;;;21.87;;
68300;SDS011;55146;47.468;18.806;2023-03-07T01:34:50;47.97;;;20.97;;
68300;SDS011;55146;47.468;18.806;2023-03-07T01:37:15;44.97;;;22.00;;
68300;SDS011;55146;47.468;18.806;2023-03-07T01:39:43;37.80;;;19.67;;
68300;SDS011;55146;47.468;18.806;2023-03-07T01:42:08;40.30;;;19.70;;
68300;SDS011;55146;47.468;18.806;2023-03-07T01:47:22;38.27;;;20.90;;
68300;SDS011;55146;47.468;18.806;2023-03-07T01:49:48;40.50;;;20.05;;
68300;SDS011;55146;47.468;18.806;2023-03-07T01:52:15;39.77;;;20.53;;
68300;SDS011;55146;47.468;18.806;2023-03-07T01:54:46;35.63;;;18.73;;
68300;SDS011;55146;47.468;18.806;2023-03-07T01:57:18;39.20;;;20.83;;
68300;SDS011;55146;47.468;18.806;2023-03-07T01:59:48;37.22;;;19.60;;
68300;SDS011;55146;47.468;18.806;2023-03-07T02:02:17;36.83;;;19.60;;
68300;SDS011;55146;47.468;18.806;2023-03-07T02:07:14;39.70;;;20.55;;
68300;SDS011;55146;47.468;18.806;2023-03-07T02:09:42;43.65;;;20.23;;
68300;SDS011;55146;47.468;18.806;2023-03-07T02:12:11;36.00;;;20.25;;
68300;SDS011;55146;47.468;18.806;2023-03-07T02:14:40;45.23;;;21.57;;
68300;SDS011;55146;47.468;18.806;2023-03-07T02:17:07;43.65;;;20.08;;
68300;SDS011;55146;47.468;18.806;2023-03-07T02:19:40;38.07;;;21.00;;
68300;SDS011;55146;47.468;18.806;2023-03-07T02:22:08;43.92;;;20.45;;
68300;SDS011;55146;47.468;18.806;2023-03-07T02:24:41;39.50;;;20.23;;
68300;SDS011;55146;47.468;18.806;2023-03-07T02:27:12;43.25;;;23.50;;
68300;SDS011;55146;47.468;18.806;2023-03-07T02:29:39;41.20;;;21.37;;
68300;SDS011;55146;47.468;18.806;2023-03-07T02:32:04;43.33;;;21.30;;
68300;SDS011;55146;47.468;18.806;2023-03-07T02:34:30;38.87;;;21.37;;
68300;SDS011;55146;47.468;18.806;2023-03-07T02:39:53;42.80;;;21.17;;
68300;SDS011;55146;47.468;18.806;2023-03-07T02:42:24;39.83;;;20.77;;
68300;SDS011;55146;47.468;18.806;2023-03-07T02:44:54;38.55;;;20.50;;
68300;SDS011;55146;47.468;18.806;2023-03-07T02:47:23;41.53;;;21.45;;
68300;SDS011;55146;47.468;18.806;2023-03-07T02:49:49;41.43;;;22.20;;
68300;SDS011;55146;47.468;18.806;2023-03-07T02:52:14;42.83;;;20.10;;
68300;SDS011;55146;47.468;18.806;2023-03-07T02:54:40;40.30;;;21.03;;
68300;SDS011;55146;47.468;18.806;2023-03-07T02:57:05;41.47;;;21.07;;
68300;SDS011;55146;47.468;18.806;2023-03-07T02:59:31;41.03;;;20.40;;
68300;SDS011;55146;47.468;18.806;2023-03-07T03:01:56;41.45;;;20.58;;
68300;SDS011;55146;47.468;18.806;2023-03-07T03:04:22;46.07;;;19.30;;
68300;SDS011;55146;47.468;18.806;2023-03-07T03:06:47;38.23;;;19.87;;
68300;SDS011;55146;47.468;18.806;2023-03-07T03:09:12;43.60;;;21.20;;
68300;SDS011;55146;47.468;18.806;2023-03-07T03:11:38;46.37;;;21.10;;
68300;SDS011;55146;47.468;18.806;2023-03-07T03:14:03;38.93;;;21.50;;
68300;SDS011;55146;47.468;18.806;2023-03-07T03:16:29;42.20;;;20.60;;
68300;SDS011;55146;47.468;18.806;2023-03-07T03:18:54;41.10;;;21.57;;
68300;SDS011;55146;47.468;18.806;2023-03-07T03:21:19;41.35;;;22.67;;
68300;SDS011;55146;47.468;18.806;2023-03-07T03:23:45;39.37;;;20.80;;
68300;SDS011;55146;47.468;18.806;2023-03-07T03:26:10;44.03;;;22.87;;
68300;SDS011;55146;47.468;18.806;2023-03-07T03:28:36;41.77;;;22.30;;
68300;SDS011;55146;47.468;18.806;2023-03-07T03:31:07;41.42;;;21.00;;
68300;SDS011;55146;47.468;18.806;2023-03-07T03:33:34;38.38;;;20.60;;
68300;SDS011;55146;47.468;18.806;2023-03-07T03:36:04;46.07;;;21.30;;
68300;SDS011;55146;47.468;18.806;2023-03-07T03:38:31;42.50;;;21.05;;
68300;SDS011;55146;47.468;18.806;2023-03-07T03:40:57;39.03;;;20.63;;
68300;SDS011;55146;47.468;18.806;2023-03-07T03:43:23;43.87;;;21.47;;
68300;SDS011;55146;47.468;18.806;2023-03-07T03:45:55;39.03;;;21.27;;
68300;SDS011;55146;47.468;18.806;2023-03-07T03:48:21;41.67;;;21.25;;
68300;SDS011;55146;47.468;18.806;2023-03-07T03:50:47;41.20;;;23.25;;
68300;SDS011;55146;47.468;18.806;2023-03-07T03:53:12;47.13;;;23.07;;
68300;SDS011;55146;47.468;18.806;2023-03-07T03:55:38;43.33;;;20.73;;
68300;SDS011;55146;47.468;18.806;2023-03-07T03:58:03;38.17;;;20.30;;
68300;SDS011;55146;47.468;18.806;2023-03-07T04:00:28;41.07;;;21.93;;
68300;SDS011;55146;47.468;18.806;2023-03-07T04:02:54;41.60;;;21.08;;
68300;SDS011;55146;47.468;18.806;2023-03-07T04:05:20;43.77;;;20.80;;
68300;SDS011;55146;47.468;18.806;2023-03-07T04:07:46;42.67;;;22.08;;
68300;SDS011;55146;47.468;18.806;2023-03-07T04:10:12;45.00;;;21.58;;
68300;SDS011;55146;47.468;18.806;2023-03-07T04:12:37;38.90;;;20.17;;
68300;SDS011;55146;47.468;18.806;2023-03-07T04:15:03;43.10;;;22.80;;
68300;SDS011;55146;47.468;18.806;2023-03-07T04:17:31;38.05;;;19.67;;
68300;SDS011;55146;47.468;18.806;2023-03-07T04:19:57;41.20;;;20.80;;
68300;SDS011;55146;47.468;18.806;2023-03-07T04:22:22;37.33;;;19.13;;
68300;SDS011;55146;47.468;18.806;2023-03-07T04:24:48;37.92;;;19.80;;
68300;SDS011;55146;47.468;18.806;2023-03-07T04:27:13;42.33;;;20.50;;
68300;SDS011;55146;47.468;18.806;2023-03-07T04:29:38;40.60;;;20.73;;
68300;SDS011;55146;47.468;18.806;2023-03-07T04:32:04;35.63;;;19.63;;
68300;SDS011;55146;47.468;18.806;2023-03-07T04:34:29;43.53;;;21.90;;
68300;SDS011;55146;47.468;18.806;2023-03-07T04:36:55;38.92;;;19.73;;
68300;SDS011;55146;47.468;18.806;2023-03-07T04:39:20;39.37;;;19.63;;
68300;SDS011;55146;47.468;18.806;2023-03-07T04:41:46;37.73;;;21.60;;
68300;SDS011;55146;47.468;18.806;2023-03-07T04:44:11;35.43;;;18.50;;
68300;SDS011;55146;47.468;18.806;2023-03-07T04:46:38;42.80;;;20.27;;
68300;SDS011;55146;47.468;18.806;2023-03-07T04:49:03;37.40;;;20.60;;
68300;SDS011;55146;47.468;18.806;2023-03-07T04:51:29;41.03;;;19.70;;
68300;SDS011;55146;47.468;18.806;2023-03-07T04:53:54;35.87;;;20.40;;
68300;SDS011;55146;47.468;18.806;2023-03-07T04:56:20;37.83;;;18.77;;
68300;SDS011;55146;47.468;18.806;2023-03-07T04:58:45;34.00;;;20.20;;
68300;SDS011;55146;47.468;18.806;2023-03-07T05:01:11;40.47;;;19.93;;
68300;SDS011;55146;47.468;18.806;2023-03-07T05:03:36;39.97;;;20.10;;
68300;SDS011;55146;47.468;18.806;2023-03-07T05:06:06;38.50;;;20.17;;
68300;SDS011;55146;47.468;18.806;2023-03-07T05:08:33;39.25;;;19.83;;
68300;SDS011;55146;47.468;18.806;2023-03-07T05:10:59;36.95;;;19.00;;
68300;SDS011;55146;47.468;18.806;2023-03-07T05:13:24;37.67;;;19.03;;
68300;SDS011;55146;47.468;18.806;2023-03-07T05:15:50;35.22;;;18.83;;
68300;SDS011;55146;47.468;18.806;2023-03-07T05:18:16;39.57;;;21.17;;
68300;SDS011;55146;47.468;18.806;2023-03-07T05:20:42;33.53;;;19.58;;
68300;SDS011;55146;47.468;18.806;2023-03-07T05:23:07;40.87;;;19.23;;
68300;SDS011;55146;47.468;18.806;2023-03-07T05:25:32;36.37;;;20.17;;
68300;SDS011;55146;47.468;18.806;2023-03-07T05:27:58;38.80;;;19.73;;
68300;SDS011;55146;47.468;18.806;2023-03-07T05:30:23;38.27;;;18.83;;
68300;SDS011;55146;47.468;18.806;2023-03-07T05:32:48;37.87;;;19.77;;
68300;SDS011;55146;47.468;18.806;2023-03-07T05:35:15;44.33;;;19.75;;
68300;SDS011;55146;47.468;18.806;2023-03-07T05:37:41;40.27;;;19.63;;
68300;SDS011;55146;47.468;18.806;2023-03-07T05:40:06;42.00;;;21.63;;
68300;SDS011;55146;47.468;18.806;2023-03-07T05:42:35;37.88;;;18.33;;
68300;SDS011;55146;47.468;18.806;2023-03-07T05:45:02;39.87;;;19.13;;
68300;SDS011;55146;47.468;18.806;2023-03-07T05:47:29;40.70;;;20.20;;
68300;SDS011;55146;47.468;18.806;2023-03-07T05:49:55;39.97;;;20.40;;
68300;SDS011;55146;47.468;18.806;2023-03-07T05:52:20;39.28;;;19.65;;
68300;SDS011;55146;47.468;18.806;2023-03-07T05:54:45;38.40;;;20.13;;
68300;SDS011;55146;47.468;18.806;2023-03-07T05:57:11;48.47;;;24.13;;
68300;SDS011;55146;47.468;18.806;2023-03-07T05:59:36;50.47;;;25.83;;
68300;SDS011;55146;47.468;18.806;2023-03-07T06:02:02;54.40;;;27.40;;
68300;SDS011;55146;47.468;18.806;2023-03-07T06:04:27;48.63;;;25.30;;
68300;SDS011;55146;47.468;18.806;2023-03-07T06:06:52;47.00;;;24.42;;
68300;SDS011;55146;47.468;18.806;2023-03-07T06:09:18;48.30;;;24.53;;
68300;SDS011;55146;47.468;18.806;2023-03-07T06:11:43;50.07;;;24.93;;
68300;SDS011;55146;47.468;18.806;2023-03-07T06:14:09;46.63;;;23.30;;
68300;SDS011;55146;47.468;18.806;2023-03-07T06:16:34;44.67;;;23.80;;
68300;SDS011;55146;47.468;18.806;2023-03-07T06:18:59;40.97;;;23.20;;
68300;SDS011;55146;47.468;18.806;2023-03-07T06:21:25;50.53;;;24.93;;
68300;SDS011;55146;47.468;18.806;2023-03-07T06:23:50;40.20;;;21.33;;
68300;SDS011;55146;47.468;18.806;2023-03-07T06:26:15;47.07;;;21.80;;
68300;SDS011;55146;47.468;18.806;2023-03-07T06:28:41;38.70;;;21.17;;
68300;SDS011;55146;47.468;18.806;2023-03-07T06:31:08;38.45;;;21.62;;
68300;SDS011;55146;47.468;18.806;2023-03-07T06:33:38;39.42;;;21.17;;
68300;SDS011;55146;47.468;18.806;2023-03-07T06:36:04;43.80;;;22.20;;
68300;SDS011;55146;47.468;18.806;2023-03-07T06:38:31;46.58;;;21.70;;
68300;SDS011;55146;47.468;18.806;2023-03-07T06:40:56;42.40;;;22.13;;
68300;SDS011;55146;47.468;18.806;2023-03-07T06:43:22;53.17;;;23.20;;
68300;SDS011;55146;47.468;18.806;2023-03-07T06:45:47;54.97;;;26.13;;
68300;SDS011;55146;47.468;18.806;2023-03-07T06:48:12;51.53;;;26.33;;
68300;SDS011;55146;47.468;18.806;2023-03-07T06:50:38;51.53;;;25.73;;
68300;SDS011;55146;47.468;18.806;2023-03-07T06:53:03;56.60;;;27.70;;
68300;SDS011;55146;47.468;18.806;2023-03-07T06:55:28;54.70;;;26.73;;
68300;SDS011;55146;47.468;18.806;2023-03-07T06:57:54;53.97;;;26.33;;
68300;SDS011;55146;47.468;18.806;2023-03-07T07:00:19;46.97;;;26.90;;
68300;SDS011;55146;47.468;18.806;2023-03-07T07:02:46;47.90;;;27.50;;
68300;SDS011;55146;47.468;18.806;2023-03-07T07:05:12;46.50;;;22.77;;
68300;SDS011;55146;47.468;18.806;2023-03-07T07:07:37;48.20;;;23.30;;
68300;SDS011;55146;47.468;18.806;2023-03-07T07:10:02;46.03;;;25.50;;
68300;SDS011;55146;47.468;18.806;2023-03-07T07:12:29;45.38;;;26.08;;
68300;SDS011;55146;47.468;18.806;2023-03-07T07:14:58;46.72;;;24.48;;
68300;SDS011;55146;47.468;18.806;2023-03-07T07:17:26;44.72;;;22.65;;
68300;SDS011;55146;47.468;18.806;2023-03-07T07:19:54;49.13;;;25.70;;
68300;SDS011;55146;47.468;18.806;2023-03-07T07:22:20;48.23;;;22.80;;
68300;SDS011;55146;47.468;18.806;2023-03-07T07:24:45;46.80;;;23.80;;
68300;SDS011;55146;47.468;18.806;2023-03-07T07:27:10;46.80;;;24.20;;
68300;SDS011;55146;47.468;18.806;2023-03-07T07:29:36;48.53;;;24.47;;
68300;SDS011;55146;47.468;18.806;2023-03-07T07:32:01;56.70;;;28.20;;
68300;SDS011;55146;47.468;18.806;2023-03-07T07:34:27;48.90;;;25.35;;
68300;SDS011;55146;47.468;18.806;2023-03-07T07:36:52;48.27;;;26.13;;
68300;SDS011;55146;47.468;18.806;2023-03-07T07:39:18;52.07;;;27.37;;
68300;SDS011;55146;47.468;18.806;2023-03-07T07:41:44;50.05;;;26.23;;
68300;SDS011;55146;47.468;18.806;2023-03-07T07:44:09;44.47;;;24.47;;
68300;SDS011;55146;47.468;18.806;2023-03-07T07:46:36;42.77;;;23.03;;
68300;SDS011;55146;47.468;18.806;2023-03-07T07:49:02;48.87;;;24.07;;
68300;SDS011;55146;47.468;18.806;2023-03-07T07:51:27;47.17;;;24.13;;
68300;SDS011;55146;47.468;18.806;2023-03-07T07:53:53;44.10;;;23.70;;
68300;SDS011;55146;47.468;18.806;2023-03-07T07:56:19;45.20;;;24.95;;
68300;SDS011;55146;47.468;18.806;2023-03-07T07:58:44;49.87;;;25.17;;
68300;SDS011;55146;47.468;18.806;2023-03-07T08:01:20;45.35;;;24.50;;
68300;SDS011;55146;47.468;18.806;2023-03-07T08:03:47;45.97;;;23.60;;
68300;SDS011;55146;47.468;18.806;2023-03-07T08:06:16;46.73;;;23.20;;
68300;SDS011;55146;47.468;18.806;2023-03-07T08:08:44;50.78;;;25.52;;
68300;SDS011;55146;47.468;18.806;2023-03-07T08:11:09;51.92;;;25.05;;
68300;SDS011;55146;47.468;18.806;2023-03-07T08:13:34;40.13;;;22.30;;
68300;SDS011;55146;47.468;18.806;2023-03-07T08:16:06;40.20;;;21.53;;
68300;SDS011;55146;47.468;18.806;2023-03-07T08:18:36;41.30;;;21.95;;
68300;SDS011;55146;47.468;18.806;2023-03-07T08:21:01;46.63;;;23.10;;
68300;SDS011;55146;47.468;18.806;2023-03-07T08:23:26;48.03;;;24.53;;
68300;SDS011;55146;47.468;18.806;2023-03-07T08:25:52;43.80;;;23.23;;
68300;SDS011;55146;47.468;18.806;2023-03-07T08:28:17;39.60;;;21.85;;
68300;SDS011;55146;47.468;18.806;2023-03-07T08:30:42;41.90;;;21.53;;
68300;SDS011;55146;47.468;18.806;2023-03-07T08:33:08;36.63;;;18.70;;
68300;SDS011;55146;47.468;18.806;2023-03-07T08:35:33;39.50;;;20.53;;
68300;SDS011;55146;47.468;18.806;2023-03-07T08:37:59;34.70;;;18.17;;
68300;SDS011;55146;47.468;18.806;2023-03-07T08:40:26;33.40;;;17.27;;
68300;SDS011;55146;47.468;18.806;2023-03-07T08:42:57;33.10;;;16.23;;
68300;SDS011;55146;47.468;18.806;2023-03-07T08:45:23;32.42;;;16.23;;
68300;SDS011;55146;47.468;18.806;2023-03-07T08:47:52;29.03;;;15.20;;
68300;SDS011;55146;47.468;18.806;2023-03-07T08:50:19;30.58;;;16.77;;
68300;SDS011;55146;47.468;18.806;2023-03-07T08:52:45;28.85;;;14.80;;
68300;SDS011;55146;47.468;18.806;2023-03-07T08:55:11;28.30;;;16.33;;
68300;SDS011;55146;47.468;18.806;2023-03-07T08:57:36;31.93;;;15.60;;
68300;SDS011;55146;47.468;18.806;2023-03-07T09:00:01;30.97;;;16.50;;
68300;SDS011;55146;47.468;18.806;2023-03-07T09:02:27;33.17;;;15.30;;
68300;SDS011;55146;47.468;18.806;2023-03-07T09:04:53;25.70;;;13.87;;
68300;SDS011;55146;47.468;18.806;2023-03-07T09:07:18;29.90;;;15.20;;
68300;SDS011;55146;47.468;18.806;2023-03-07T09:09:44;31.55;;;14.60;;
68300;SDS011;55146;47.468;18.806;2023-03-07T09:12:09;27.03;;;14.10;;
68300;SDS011;55146;47.468;18.806;2023-03-07T09:14:34;29.17;;;15.07;;
68300;SDS011;55146;47.468;18.806;2023-03-07T09:17:00;28.77;;;15.67;;
68300;SDS011;55146;47.468;18.806;2023-03-07T09:19:25;27.17;;;15.07;;
68300;SDS011;55146;47.468;18.806;2023-03-07T09:21:51;30.10;;;15.80;;
68300;SDS011;55146;47.468;18.806;2023-03-07T09:24:16;29.30;;;14.40;;
68300;SDS011;55146;47.468;18.806;2023-03-07T09:26:41;30.97;;;15.07;;
68300;SDS011;55146;47.468;18.806;2023-03-07T09:29:07;27.00;;;14.73;;
68300;SDS011;55146;47.468;18.806;2023-03-07T09:31:32;27.73;;;15.97;;
68300;SDS011;55146;47.468;18.806;2023-03-07T09:33:58;21.23;;;11.82;;
68300;SDS011;55146;47.468;18.806;2023-03-07T09:36:23;20.93;;;11.13;;
68300;SDS011;55146;47.468;18.806;2023-03-07T09:38:48;26.70;;;12.10;;
68300;SDS011;55146;47.468;18.806;2023-03-07T09:44:09;26.10;;;12.95;;
68300;SDS011;55146;47.468;18.806;2023-03-07T09:52:06;24.30;;;12.77;;
68300;SDS011;55146;47.468;18.806;2023-03-07T09:54:37;25.43;;;12.47;;
68300;SDS011;55146;47.468;18.806;2023-03-07T09:57:13;24.63;;;13.23;;
68300;SDS011;55146;47.468;18.806;2023-03-07T09:59:47;25.40;;;12.57;;
68300;SDS011;55146;47.468;18.806;2023-03-07T10:05:07;14.35;;;6.93;;
68300;SDS011;55146;47.468;18.806;2023-03-07T10:07:46;16.23;;;6.70;;
68300;SDS011;55146;47.468;18.806;2023-03-07T10:10:22;15.90;;;7.43;;
68300;SDS011;55146;47.468;18.806;2023-03-07T10:12:56;11.25;;;6.40;;
68300;SDS011;55146;47.468;18.806;2023-03-07T10:15:27;11.50;;;6.03;;
68300;SDS011;55146;47.468;18.806;2023-03-07T10:23:44;22.37;;;10.25;;
68300;SDS011;55146;47.468;18.806;2023-03-07T10:27:03;19.37;;;10.50;;
68300;SDS011;55146;47.468;18.806;2023-03-07T10:32:51;15.48;;;8.90;;
68300;SDS011;55146;47.468;18.806;2023-03-07T10:40:30;18.08;;;10.13;;
68300;SDS011;55146;47.468;18.806;2023-03-07T10:43:06;19.77;;;10.30;;
68300;SDS011;55146;47.468;18.806;2023-03-07T10:45:32;20.52;;;9.93;;
68300;SDS011;55146;47.468;18.806;2023-03-07T10:48:07;19.65;;;10.52;;
68300;SDS011;55146;47.468;18.806;2023-03-07T10:53:15;18.30;;;9.57;;
68300;SDS011;55146;47.468;18.806;2023-03-07T10:55:52;17.23;;;9.75;;
68300;SDS011;55146;47.468;18.806;2023-03-07T10:58:33;16.42;;;9.50;;
68300;SDS011;55146;47.468;18.806;2023-03-07T11:03:32;17.42;;;9.32;;
68300;SDS011;55146;47.468;18.806;2023-03-07T11:09:12;17.60;;;9.20;;
68300;SDS011;55146;47.468;18.806;2023-03-07T11:11:51;18.08;;;9.73;;
68300;SDS011;55146;47.468;18.806;2023-03-07T11:14:44;18.40;;;9.60;;
68300;SDS011;55146;47.468;18.806;2023-03-07T11:19:54;17.83;;;9.93;;
68300;SDS011;55146;47.468;18.806;2023-03-07T11:22:26;21.27;;;9.57;;
68300;SDS011;55146;47.468;18.806;2023-03-07T11:27:36;20.73;;;10.67;;
68300;SDS011;55146;47.468;18.806;2023-03-07T11:40:58;21.67;;;13.18;;
68300;SDS011;55146;47.468;18.806;2023-03-07T11:46:18;21.53;;;12.87;;
68300;SDS011;55146;47.468;18.806;2023-03-07T11:52:20;21.02;;;11.48;;
68300;SDS011;55146;47.468;18.806;2023-03-07T12:11:53;21.73;;;10.30;;
68300;SDS011;55146;47.468;18.806;2023-03-07T12:14:48;19.33;;;11.23;;
68300;SDS011;55146;47.468;18.806;2023-03-07T12:25:44;20.23;;;10.90;;
68300;SDS011;55146;47.468;18.806;2023-03-07T12:30:46;19.98;;;9.68;;
68300;SDS011;55146;47.468;18.806;2023-03-07T12:36:22;22.77;;;10.93;;
68300;SDS011;55146;47.468;18.806;2023-03-07T12:41:47;16.57;;;9.50;;
68300;SDS011;55146;47.468;18.806;2023-03-07T12:44:33;20.33;;;9.32;;
68300;SDS011;55146;47.468;18.806;2023-03-07T12:52:37;18.98;;;9.75;;
68300;SDS011;55146;47.468;18.806;2023-03-07T12:56:10;16.90;;;9.43;;
68300;SDS011;55146;47.468;18.806;2023-03-07T13:01:01;16.15;;;9.30;;
68300;SDS011;55146;47.468;18.806;2023-03-07T13:03:33;20.45;;;10.73;;
68300;SDS011;55146;47.468;18.806;2023-03-07T13:06:14;17.10;;;9.60;;
68300;SDS011;55146;47.468;18.806;2023-03-07T13:08:50;22.07;;;10.47;;
68300;SDS011;55146;47.468;18.806;2023-03-07T13:11:36;18.23;;;10.60;;
68300;SDS011;55146;47.468;18.806;2023-03-07T13:14:36;17.92;;;9.70;;
68300;SDS011;55146;47.468;18.806;2023-03-07T13:17:09;17.60;;;9.65;;
68300;SDS011;55146;47.468;18.806;2023-03-07T13:22:03;21.80;;;10.97;;
68300;SDS011;55146;47.468;18.806;2023-03-07T13:24:51;20.45;;;10.50;;
68300;SDS011;55146;47.468;18.806;2023-03-07T13:27:22;20.25;;;10.75;;
68300;SDS011;55146;47.468;18.806;2023-03-07T13:45:48;19.62;;;9.55;;
68300;SDS011;55146;47.468;18.806;2023-03-07T14:01:22;15.83;;;9.17;;
68300;SDS011;55146;47.468;18.806;2023-03-07T14:06:18;23.10;;;9.77;;
68300;SDS011;55146;47.468;18.806;2023-03-07T14:08:46;21.08;;;10.00;;
68300;SDS011;55146;47.468;18.806;2023-03-07T14:11:20;17.42;;;8.73;;
68300;SDS011;55146;47.468;18.806;2023-03-07T14:14:11;20.48;;;9.98;;
68300;SDS011;55146;47.468;18.806;2023-03-07T14:16:47;19.63;;;8.97;;
68300;SDS011;55146;47.468;18.806;2023-03-07T14:22:12;16.85;;;8.90;;
68300;SDS011;55146;47.468;18.806;2023-03-07T14:24:51;18.92;;;9.55;;
68300;SDS011;55146;47.468;18.806;2023-03-07T14:27:31;18.87;;;9.77;;
68300;SDS011;55146;47.468;18.806;2023-03-07T14:30:16;24.70;;;10.43;;
68300;SDS011;55146;47.468;18.806;2023-03-07T14:32:42;19.35;;;10.48;;
68300;SDS011;55146;47.468;18.806;2023-03-07T14:35:08;21.00;;;11.50;;
68300;SDS011;55146;47.468;18.806;2023-03-07T14:37:39;22.85;;;12.10;;
68300;SDS011;55146;47.468;18.806;2023-03-07T14:42:53;23.42;;;11.38;;
68300;SDS011;55146;47.468;18.806;2023-03-07T14:45:55;20.80;;;11.35;;
68300;SDS011;55146;47.468;18.806;2023-03-07T14:51:20;22.52;;;10.57;;
68300;SDS011;55146;47.468;18.806;2023-03-07T14:53:49;19.90;;;10.93;;
68300;SDS011;55146;47.468;18.806;2023-03-07T14:56:19;21.35;;;10.30;;
68300;SDS011;55146;47.468;18.806;2023-03-07T14:58:53;19.80;;;10.13;;
68300;SDS011;55146;47.468;18.806;2023-03-07T15:01:20;21.10;;;9.82;;
68300;SDS011;55146;47.468;18.806;2023-03-07T15:03:49;17.73;;;10.18;;
68300;SDS011;55146;47.468;18.806;2023-03-07T15:06:18;22.40;;;10.30;;
68300;SDS011;55146;47.468;18.806;2023-03-07T15:08:46;18.87;;;9.85;;
68300;SDS011;55146;47.468;18.806;2023-03-07T15:16:34;22.95;;;10.82;;
68300;SDS011;55146;47.468;18.806;2023-03-07T15:21:46;20.90;;;10.73;;
68300;SDS011;55146;47.468;18.806;2023-03-07T15:24:17;19.37;;;10.27;;
68300;SDS011;55146;47.468;18.806;2023-03-07T15:26:49;21.45;;;10.30;;
68300;SDS011;55146;47.468;18.806;2023-03-07T15:29:18;21.40;;;10.40;;
68300;SDS011;55146;47.468;18.806;2023-03-07T15:34:24;18.87;;;9.85;;
68300;SDS011;55146;47.468;18.806;2023-03-07T15:36:51;23.05;;;11.00;;
68300;SDS011;55146;47.468;18.806;2023-03-07T15:39:35;25.40;;;12.18;;
68300;SDS011;55146;47.468;18.806;2023-03-07T15:42:04;23.95;;;10.52;;
68300;SDS011;55146;47.468;18.806;2023-03-07T15:44:32;23.23;;;10.80;;
68300;SDS011;55146;47.468;18.806;2023-03-07T15:47:01;26.85;;;11.80;;
68300;SDS011;55146;47.468;18.806;2023-03-07T15:49:43;21.55;;;11.10;;
68300;SDS011;55146;47.468;18.806;2023-03-07T15:54:52;23.92;;;11.63;;
68300;SDS011;55146;47.468;18.806;2023-03-07T15:57:24;22.53;;;11.63;;
68300;SDS011;55146;47.468;18.806;2023-03-07T16:00:04;26.35;;;12.40;;
68300;SDS011;55146;47.468;18.806;2023-03-07T16:04:57;35.03;;;13.47;;
68300;SDS011;55146;47.468;18.806;2023-03-07T16:07:23;28.70;;;13.23;;
68300;SDS011;55146;47.468;18.806;2023-03-07T16:09:48;30.57;;;15.13;;
68300;SDS011;55146;47.468;18.806;2023-03-07T16:12:15;28.63;;;14.43;;
68300;SDS011;55146;47.468;18.806;2023-03-07T16:14:43;31.37;;;16.48;;
68300;SDS011;55146;47.468;18.806;2023-03-07T16:17:19;30.02;;;14.80;;
68300;SDS011;55146;47.468;18.806;2023-03-07T16:19:51;29.27;;;14.57;;
68300;SDS011;55146;47.468;18.806;2023-03-07T16:22:17;29.00;;;14.83;;
68300;SDS011;55146;47.468;18.806;2023-03-07T16:24:43;31.05;;;15.10;;
68300;SDS011;55146;47.468;18.806;2023-03-07T16:27:15;28.93;;;14.70;;
68300;SDS011;55146;47.468;18.806;2023-03-07T16:29:46;36.55;;;16.17;;
68300;SDS011;55146;47.468;18.806;2023-03-07T16:32:15;27.80;;;14.05;;
68300;SDS011;55146;47.468;18.806;2023-03-07T16:34:42;29.70;;;15.60;;
68300;SDS011;55146;47.468;18.806;2023-03-07T16:37:08;31.77;;;17.23;;
68300;SDS011;55146;47.468;18.806;2023-03-07T16:39:33;33.57;;;17.10;;
68300;SDS011;55146;47.468;18.806;2023-03-07T16:41:59;35.37;;;17.47;;
68300;SDS011;55146;47.468;18.806;2023-03-07T16:44:25;28.17;;;14.93;;
68300;SDS011;55146;47.468;18.806;2023-03-07T16:47:02;33.57;;;16.33;;
68300;SDS011;55146;47.468;18.806;2023-03-07T16:49:28;32.05;;;15.77;;
68300;SDS011;55146;47.468;18.806;2023-03-07T16:51:53;37.95;;;17.73;;
68300;SDS011;55146;47.468;18.806;2023-03-07T16:54:19;31.90;;;16.83;;
68300;SDS011;55146;47.468;18.806;2023-03-07T16:56:45;30.40;;;16.73;;
68300;SDS011;55146;47.468;18.806;2023-03-07T16:59:14;30.48;;;15.63;;
68300;SDS011;55146;47.468;18.806;2023-03-07T17:01:43;30.75;;;16.65;;
68300;SDS011;55146;47.468;18.806;2023-03-07T17:04:11;32.70;;;18.08;;